Time;durP1;ratioP1;P1;durP2;ratioP2;P2;SDS_P1;SDS_P2;PMS_P1;PMS_P2;Temp;Humidity;BMP_temperature;BMP_pressure;BME280_temperature;BME280_humidity;BME280_pressure;Samples;Min_cycle;Max_cycle;Signal;HPM_P1;HPM_P2
2023/05/12 04:00:33;;;;;;;0.60;0.20;;;;;;;;;;6048846;23;20493;31
2023/05/12 04:03:01;;;;;;;0.60;0.10;;;13.90;99.90;;;;;;4962685;28;20546;-72
2023/05/12 04:05:28;;;;;;;0.60;0.10;;;13.70;99.90;;;;;;4967876;28;20530;-72
2023/05/12 04:07:56;;;;;;;0.60;0.10;;;13.80;99.90;;;;;;4966404;28;20453;-73
2023/05/12 04:10:24;;;;;;;0.60;0.10;;;13.80;99.90;;;;;;4976659;28;20487;-72
2023/05/12 04:12:53;;;;;;;0.60;0.10;;;13.80;99.90;;;;;;4957741;29;20453;-72
2023/05/12 04:15:21;;;;;;;0.60;0.10;;;13.80;99.90;;;;;;4958012;29;20448;-73
2023/05/12 04:17:50;;;;;;;0.60;0.20;;;13.90;99.90;;;;;;4957412;29;20461;-72
2023/05/12 04:20:18;;;;;;;0.60;0.10;;;13.90;99.90;;;;;;4958220;29;20454;-73
2023/05/12 04:22:47;;;;;;;0.60;0.10;;;13.80;99.90;;;;;;4958222;29;20471;-72
2023/05/12 04:25:15;;;;;;;0.60;0.20;;;13.80;99.90;;;;;;4958296;29;20832;-71
2023/05/12 04:27:43;;;;;;;0.80;0.47;;;13.80;99.90;;;;;;4948002;29;20466;-71
2023/05/12 04:30:11;;;;;;;0.70;0.30;;;13.80;99.90;;;;;;4937803;29;20550;-73
2023/05/12 04:32:38;;;;;;;0.60;0.20;;;13.80;99.90;;;;;;4936825;29;20482;-71
2023/05/12 04:35:08;;;;;;;0.60;0.10;;;13.80;99.90;;;;;;4941891;29;20454;-72
2023/05/12 04:37:36;;;;;;;1.13;1.03;;;13.70;99.90;;;;;;4944406;29;20456;-71
2023/05/12 04:40:06;;;;;;;0.60;0.10;;;13.80;99.90;;;;;;4957175;29;20452;-72
2023/05/12 04:42:34;;;;;;;0.60;0.20;;;13.70;99.90;;;;;;4942477;29;20486;-72
2023/05/12 04:45:02;;;;;;;0.60;0.20;;;13.80;99.90;;;;;;4937650;29;20457;-74
2023/05/12 04:47:30;;;;;;;0.60;0.10;;;13.70;99.90;;;;;;4937770;29;20453;-73
2023/05/12 04:49:58;;;;;;;0.60;0.10;;;13.70;99.90;;;;;;4944462;29;20482;-71
2023/05/12 04:52:27;;;;;;;0.53;0.10;;;13.80;99.90;;;;;;4948587;29;20549;-71
2023/05/12 04:54:55;;;;;;;0.60;0.50;;;13.70;99.90;;;;;;4945105;29;20797;-73
2023/05/12 04:57:23;;;;;;;0.57;0.10;;;13.80;99.90;;;;;;4948398;29;20947;-72
2023/05/12 04:59:50;;;;;;;0.60;0.20;;;13.80;99.90;;;;;;4956483;29;20441;-72
2023/05/12 05:02:18;;;;;;;0.60;0.10;;;13.80;99.90;;;;;;4956049;29;20510;-73
2023/05/12 05:04:46;;;;;;;0.60;0.20;;;13.80;99.90;;;;;;4951399;28;20461;-71
2023/05/12 05:07:14;;;;;;;0.60;0.30;;;13.80;99.90;;;;;;4949577;29;20448;-71
2023/05/12 05:09:43;;;;;;;0.60;0.20;;;13.80;99.90;;;;;;4949294;29;20555;-72
2023/05/12 05:12:11;;;;;;;0.60;0.10;;;13.70;99.90;;;;;;4954138;29;20462;-74
2023/05/12 05:14:38;;;;;;;0.60;0.10;;;13.70;99.90;;;;;;4941413;29;20470;-75
2023/05/12 05:17:06;;;;;;;0.60;0.10;;;13.80;99.90;;;;;;4938003;29;20446;-75
2023/05/12 05:19:34;;;;;;;0.87;0.87;;;13.80;99.90;;;;;;4940453;29;20473;-72
2023/05/12 05:22:22;;;;;;;0.60;0.10;;;13.80;99.90;;;;;;4929975;29;20494;-75
2023/05/12 05:24:51;;;;;;;0.60;0.30;;;13.80;99.90;;;;;;4937553;29;20477;-72
2023/05/12 05:27:19;;;;;;;0.70;0.33;;;13.60;99.90;;;;;;4936805;29;20487;-71
2023/05/12 05:29:48;;;;;;;0.80;0.60;;;13.50;99.90;;;;;;4937177;29;20518;-72
2023/05/12 05:32:17;;;;;;;0.90;0.40;;;;;;;;;;4944946;29;20476;-72
2023/05/12 05:34:45;;;;;;;0.60;0.10;;;13.50;99.90;;;;;;4952293;29;20950;-72
2023/05/12 05:37:12;;;;;;;0.60;0.10;;;13.50;99.90;;;;;;4955228;28;20465;-72
2023/05/12 05:39:40;;;;;;;0.60;0.10;;;13.60;99.90;;;;;;4939683;29;20490;-73
2023/05/12 05:42:10;;;;;;;0.60;0.10;;;13.60;99.90;;;;;;4939572;29;20479;-73
2023/05/12 05:44:37;;;;;;;0.60;0.53;;;13.60;99.90;;;;;;4943996;29;20451;-73
2023/05/12 05:47:05;;;;;;;0.60;0.10;;;13.60;99.90;;;;;;4941226;29;20473;-69
2023/05/12 05:49:33;;;;;;;0.60;0.20;;;13.80;1.00;;;;;;4942277;29;20509;-69
2023/05/12 05:52:01;;;;;;;0.60;0.10;;;13.80;1.00;;;;;;4944308;29;20540;-69
2023/05/12 05:54:29;;;;;;;0.60;0.30;;;14.00;1.00;;;;;;4936138;29;20456;-69
2023/05/12 05:56:59;;;;;;;0.60;0.20;;;14.10;1.00;;;;;;4936451;29;20466;-65
2023/05/12 05:59:28;;;;;;;0.60;0.10;;;14.10;1.00;;;;;;4936956;29;20454;-69
2023/05/12 06:01:56;;;;;;;0.60;0.10;;;14.70;99.90;;;;;;4936068;29;20481;-70
2023/05/12 06:04:24;;;;;;;0.60;0.10;;;14.30;99.90;;;;;;4935980;29;20521;-69
2023/05/12 06:06:52;;;;;;;1.23;1.13;;;14.30;99.90;;;;;;4936103;29;20491;-68
2023/05/12 06:09:20;;;;;;;0.60;0.10;;;14.20;99.90;;;;;;4936572;29;20521;-69
2023/05/12 06:11:48;;;;;;;0.73;0.60;;;14.30;99.90;;;;;;4951022;29;20702;-65
2023/05/12 06:14:16;;;;;;;0.90;0.40;;;14.20;99.90;;;;;;4946176;29;20467;-66
2023/05/12 06:16:45;;;;;;;0.60;0.10;;;14.20;99.90;;;;;;4944402;29;20456;-66
2023/05/12 06:19:14;;;;;;;0.60;0.10;;;14.30;99.90;;;;;;4945562;29;20459;-69
2023/05/12 06:21:42;;;;;;;0.60;0.40;;;14.30;99.90;;;;;;4931505;29;20473;-68
2023/05/12 06:24:10;;;;;;;0.60;0.10;;;14.20;99.90;;;;;;4934815;29;20464;-69
2023/05/12 06:26:38;;;;;;;0.80;0.50;;;14.20;99.90;;;;;;4935879;29;20444;-69
2023/05/12 06:29:07;;;;;;;0.60;0.10;;;14.20;99.90;;;;;;4934934;29;20509;-67
2023/05/12 06:31:35;;;;;;;0.60;0.10;;;14.40;99.90;;;;;;4934914;29;20501;-69
2023/05/12 06:34:04;;;;;;;0.60;0.10;;;14.40;99.90;;;;;;4939559;29;20506;-69
2023/05/12 06:36:33;;;;;;;0.60;0.10;;;14.50;99.90;;;;;;4946267;29;20442;-74
2023/05/12 06:39:01;;;;;;;0.70;0.40;;;14.50;99.90;;;;;;4945999;29;20451;-75
2023/05/12 06:41:29;;;;;;;0.80;0.40;;;14.50;99.90;;;;;;4945058;28;20472;-75
2023/05/12 06:43:59;;;;;;;0.60;0.10;;;;;;;;;;4943966;29;20451;-74
2023/05/12 06:46:27;;;;;;;1.53;0.63;;;14.50;99.90;;;;;;4939715;29;20453;-74
2023/05/12 06:48:55;;;;;;;0.60;0.10;;;14.50;99.90;;;;;;4940132;29;20458;-73
2023/05/12 06:51:24;;;;;;;0.60;0.10;;;14.50;99.90;;;;;;4936233;29;20979;-75
2023/05/12 06:53:52;;;;;;;0.60;0.10;;;14.50;99.90;;;;;;4942114;29;20490;-74
2023/05/12 06:56:22;;;;;;;0.60;0.10;;;14.60;99.90;;;;;;4941335;29;20467;-75
2023/05/12 06:58:51;;;;;;;0.60;0.10;;;14.60;99.90;;;;;;4945756;29;20460;-75
2023/05/12 07:01:18;;;;;;;2.00;0.57;;;14.60;99.90;;;;;;4945665;29;20879;-75
2023/05/12 07:03:46;;;;;;;0.60;0.20;;;14.60;99.90;;;;;;4945019;29;20433;-73
2023/05/12 07:06:15;;;;;;;1.07;0.97;;;;;;;;;;4944164;29;20456;-73
2023/05/12 07:08:44;;;;;;;0.60;0.10;;;14.70;99.90;;;;;;4944503;29;20851;-74
2023/05/12 07:11:12;;;;;;;0.60;0.10;;;14.70;99.90;;;;;;4944449;29;20850;-75
2023/05/12 07:13:39;;;;;;;0.60;0.10;;;14.60;99.90;;;;;;4950444;29;20447;-73
2023/05/12 07:16:07;;;;;;;0.60;0.20;;;14.60;99.90;;;;;;4938656;29;20547;-73
2023/05/12 07:18:35;;;;;;;1.07;0.27;;;14.50;99.90;;;;;;4943449;29;20467;-74
2023/05/12 07:21:04;;;;;;;0.60;0.10;;;14.50;99.90;;;;;;4939707;29;20468;-73
2023/05/12 07:23:33;;;;;;;1.40;1.03;;;14.50;99.90;;;;;;4938034;29;20455;-74
2023/05/12 07:26:02;;;;;;;0.60;0.10;;;14.40;99.90;;;;;;4934793;29;20457;-74
2023/05/12 07:28:34;;;;;;;0.60;0.10;;;14.40;99.90;;;;;;4936067;29;20533;-73
2023/05/12 07:31:02;;;;;;;0.60;0.10;;;14.60;99.90;;;;;;4936077;29;20507;-74
2023/05/12 07:33:30;;;;;;;0.70;0.50;;;14.60;99.90;;;;;;4937090;29;20455;-75
2023/05/12 07:35:58;;;;;;;0.80;0.20;;;14.60;99.90;;;;;;4934494;29;20827;-73
2023/05/12 07:38:26;;;;;;;0.60;0.10;;;14.60;99.90;;;;;;4943023;29;20447;-74
2023/05/12 07:40:54;;;;;;;0.60;0.10;;;14.60;99.90;;;;;;4943960;29;21032;-74
2023/05/12 07:43:23;;;;;;;0.60;0.10;;;14.60;99.90;;;;;;4942689;29;20523;-72
2023/05/12 07:45:51;;;;;;;0.60;0.10;;;14.50;99.90;;;;;;4946123;29;20581;-73
2023/05/12 07:48:19;;;;;;;0.70;0.40;;;14.50;99.90;;;;;;4944140;29;20452;-71
2023/05/12 07:50:47;;;;;;;0.60;0.10;;;14.70;99.90;;;;;;4942966;29;20440;-71
2023/05/12 07:53:15;;;;;;;0.60;0.10;;;14.80;99.90;;;;;;4941896;29;20461;-71
2023/05/12 07:55:43;;;;;;;0.90;0.40;;;14.90;99.90;;;;;;4941241;29;20443;-72
2023/05/12 07:58:11;;;;;;;0.60;0.10;;;15.00;99.90;;;;;;4943249;29;20971;-71
2023/05/12 08:00:41;;;;;;;0.60;0.10;;;15.10;99.90;;;;;;4953663;29;20510;-71
2023/05/12 08:03:11;;;;;;;1.07;0.83;;;15.20;99.90;;;;;;4953490;29;20448;-70
2023/05/12 08:05:39;;;;;;;1.27;1.23;;;15.20;99.90;;;;;;4937332;28;20833;-71
2023/05/12 08:08:11;;;;;;;0.60;0.10;;;15.30;99.90;;;;;;4934417;29;20558;-71
2023/05/12 08:10:38;;;;;;;0.60;0.30;;;15.30;99.90;;;;;;4940828;29;20445;-73
2023/05/12 08:13:06;;;;;;;0.60;0.10;;;15.30;99.90;;;;;;4948746;29;20989;-71
2023/05/12 08:15:34;;;;;;;0.60;0.10;;;15.40;99.90;;;;;;4934708;29;20480;-72
2023/05/12 08:18:03;;;;;;;0.60;0.20;;;15.30;99.90;;;;;;4938056;29;20451;-72
2023/05/12 08:20:32;;;;;;;0.60;0.10;;;15.30;99.90;;;;;;4935727;29;20513;-71
2023/05/12 08:23:00;;;;;;;0.60;0.10;;;15.40;99.90;;;;;;4932990;29;20437;-72
2023/05/12 08:25:29;;;;;;;0.60;0.10;;;15.50;99.90;;;;;;4933902;29;20464;-73
2023/05/12 08:27:58;;;;;;;0.60;0.10;;;15.70;99.90;;;;;;4933666;29;21120;-73
2023/05/12 08:30:26;;;;;;;0.60;0.10;;;15.70;99.90;;;;;;4933210;29;20455;-73
2023/05/12 08:32:55;;;;;;;0.60;0.10;;;15.90;99.90;;;;;;4933124;29;20551;-71
2023/05/12 08:35:24;;;;;;;0.60;0.10;;;16.00;99.90;;;;;;4933981;29;20455;-73
2023/05/12 08:37:52;;;;;;;0.60;0.30;;;16.10;99.90;;;;;;4934775;29;20458;-73
2023/05/12 08:40:21;;;;;;;0.60;0.10;;;16.10;99.90;;;;;;4938269;29;20466;-71
2023/05/12 08:42:58;;;;;;;0.60;0.10;;;16.10;99.90;;;;;;4940136;29;20971;-72
2023/05/12 08:45:29;;;;;;;0.60;0.20;;;16.20;99.90;;;;;;4936028;29;20500;-72
2023/05/12 08:47:58;;;;;;;0.60;0.10;;;16.20;99.90;;;;;;4938324;29;20453;-73
2023/05/12 08:50:30;;;;;;;0.60;0.10;;;16.20;99.90;;;;;;4939670;29;20449;-72
2023/05/12 08:52:59;;;;;;;0.90;0.50;;;16.20;99.90;;;;;;4939875;29;20509;-72
2023/05/12 08:55:27;;;;;;;0.60;0.10;;;16.20;99.90;;;;;;4939405;29;20463;-71
2023/05/12 08:58:02;;;;;;;1.23;1.07;;;16.20;99.90;;;;;;4940442;29;20440;-73
2023/05/12 09:00:32;;;;;;;1.27;1.07;;;16.20;99.90;;;;;;4940535;29;20522;-73
2023/05/12 09:03:02;;;;;;;0.60;0.10;;;16.20;99.90;;;;;;4938066;29;20460;-72
2023/05/12 09:05:32;;;;;;;0.60;0.10;;;16.30;99.90;;;;;;4941083;29;20462;-73
2023/05/12 09:08:01;;;;;;;0.60;0.10;;;16.40;99.90;;;;;;4941003;29;20447;-73
2023/05/12 09:10:29;;;;;;;0.60;0.10;;;16.40;99.90;;;;;;4941758;29;20467;-72
2023/05/12 09:13:04;;;;;;;0.60;0.33;;;16.40;99.90;;;;;;4940621;29;20489;-71
2023/05/12 09:15:36;;;;;;;0.60;0.10;;;16.40;99.90;;;;;;4941739;29;20569;-74
2023/05/12 09:18:04;;;;;;;0.60;0.20;;;16.50;99.90;;;;;;4941711;29;20447;-73
2023/05/12 09:20:34;;;;;;;0.60;0.20;;;16.40;99.90;;;;;;4943084;29;20470;-72
2023/05/12 09:23:15;;;;;;;0.60;0.20;;;16.50;99.90;;;;;;4943883;29;20451;-72
2023/05/12 09:25:43;;;;;;;0.60;0.20;;;16.50;99.90;;;;;;4941820;29;20868;-72
2023/05/12 09:28:11;;;;;;;0.60;0.10;;;16.50;99.90;;;;;;4941895;29;20451;-74
2023/05/12 09:30:41;;;;;;;0.60;0.20;;;16.60;99.90;;;;;;4938929;29;20466;-72
2023/05/12 09:33:10;;;;;;;0.80;0.57;;;16.60;99.90;;;;;;4940558;29;20489;-72
2023/05/12 09:35:42;;;;;;;0.60;0.10;;;16.60;99.90;;;;;;4942090;29;20889;-73
2023/05/12 09:38:11;;;;;;;0.73;0.20;;;16.70;99.90;;;;;;4940248;29;20448;-73
2023/05/12 09:40:39;;;;;;;1.27;0.60;;;;;;;;;;4939203;29;20464;-71
2023/05/12 09:43:08;;;;;;;0.60;0.10;;;16.70;99.90;;;;;;4939147;29;20821;-72
2023/05/12 09:45:37;;;;;;;0.60;0.10;;;16.70;99.90;;;;;;4937483;29;20446;-71
2023/05/12 09:48:10;;;;;;;0.60;0.30;;;16.80;99.90;;;;;;4938720;29;20925;-74
2023/05/12 09:50:47;;;;;;;0.60;0.17;;;17.10;99.90;;;;;;4936788;29;20451;-73
2023/05/12 09:53:17;;;;;;;0.60;0.10;;;17.10;99.90;;;;;;4936303;29;20491;-74
2023/05/12 09:55:46;;;;;;;0.60;0.30;;;17.10;99.90;;;;;;4937951;29;20494;-74
2023/05/12 09:58:16;;;;;;;0.60;0.30;;;17.10;99.90;;;;;;4935162;29;20475;-68
2023/05/12 10:00:44;;;;;;;1.27;0.87;;;17.10;99.90;;;;;;4935379;29;20968;-70
2023/05/12 10:03:17;;;;;;;0.70;0.40;;;17.10;99.90;;;;;;4934309;29;20466;-67
2023/05/12 10:05:50;;;;;;;0.70;0.50;;;17.20;99.90;;;;;;4937113;29;20462;-68
2023/05/12 10:08:22;;;;;;;0.60;0.10;;;17.30;99.90;;;;;;4937452;29;20451;-69
2023/05/12 10:10:52;;;;;;;3.47;3.03;;;17.40;99.90;;;;;;4937170;29;21005;-68
2023/05/12 10:13:22;;;;;;;0.60;0.10;;;17.40;99.90;;;;;;4936006;29;20489;-69
2023/05/12 10:15:51;;;;;;;0.87;0.40;;;17.30;99.90;;;;;;4935694;29;20455;-68
2023/05/12 10:18:19;;;;;;;0.60;0.20;;;17.30;99.90;;;;;;4937100;29;20467;-67
2023/05/12 10:20:51;;;;;;;0.60;0.20;;;17.20;99.90;;;;;;4932871;29;20498;-68
2023/05/12 10:23:20;;;;;;;0.60;0.33;;;17.20;99.90;;;;;;4932551;29;20447;-70
2023/05/12 10:25:49;;;;;;;0.97;0.40;;;17.20;99.90;;;;;;4934857;29;20447;-68
2023/05/12 10:28:18;;;;;;;0.60;0.10;;;17.00;99.90;;;;;;4935960;29;20469;-69
2023/05/12 10:30:49;;;;;;;0.60;0.20;;;16.80;99.90;;;;;;4935827;29;20459;-70
2023/05/12 10:33:17;;;;;;;1.07;0.97;;;16.90;99.90;;;;;;4933907;29;20487;-68
2023/05/12 10:35:45;;;;;;;0.60;0.10;;;16.80;99.90;;;;;;4937304;29;20474;-69
2023/05/12 10:38:18;;;;;;;0.60;0.20;;;16.80;99.90;;;;;;4935395;29;20483;-68
2023/05/12 10:40:52;;;;;;;0.60;0.20;;;16.70;99.90;;;;;;4935004;29;20952;-68
2023/05/12 10:43:23;;;;;;;0.70;0.37;;;16.80;99.90;;;;;;4934968;29;20459;-69
2023/05/12 10:46:08;;;;;;;3.27;2.17;;;16.80;99.90;;;;;;4935109;29;20551;-68
2023/05/12 10:48:37;;;;;;;1.57;1.47;;;16.80;99.90;;;;;;4935730;29;20443;-68
2023/05/12 10:51:09;;;;;;;0.60;0.30;;;16.80;99.90;;;;;;4934727;29;20501;-66
2023/05/12 10:53:39;;;;;;;11.53;10.53;;;16.80;99.90;;;;;;4935052;29;20494;-70
2023/05/12 10:56:24;;;;;;;0.60;0.10;;;16.80;99.90;;;;;;4935464;29;20458;-70
2023/05/12 10:59:11;;;;;;;0.90;0.40;;;16.90;99.90;;;;;;4935208;29;20458;-70
2023/05/12 11:01:40;;;;;;;0.60;0.20;;;17.00;99.90;;;;;;4933265;29;20494;-69
2023/05/12 11:04:12;;;;;;;0.60;0.10;;;17.10;99.90;;;;;;4935038;29;21745;-70
2023/05/12 11:06:40;;;;;;;1.07;0.37;;;17.10;99.90;;;;;;4935354;29;20447;-72
2023/05/12 11:09:12;;;;;;;0.80;0.43;;;17.10;99.90;;;;;;4935484;29;20473;-72
2023/05/12 11:11:40;;;;;;;0.60;0.20;;;17.20;99.90;;;;;;4937926;29;20477;-72
2023/05/12 11:14:10;;;;;;;0.60;0.20;;;17.30;99.90;;;;;;4935908;29;20569;-74
2023/05/12 11:16:43;;;;;;;0.60;0.20;;;17.40;99.90;;;;;;4935396;29;20460;-72
2023/05/12 11:19:12;;;;;;;1.07;1.07;;;17.50;99.90;;;;;;4934665;29;20920;-70
2023/05/12 11:21:40;;;;;;;0.60;0.10;;;17.50;99.90;;;;;;4935240;29;20567;-71
2023/05/12 11:24:10;;;;;;;2.10;0.60;;;17.50;99.90;;;;;;4935010;29;20440;-71
2023/05/12 11:26:42;;;;;;;2.03;0.67;;;17.50;99.90;;;;;;4935460;29;20476;-72
2023/05/12 11:29:10;;;;;;;0.60;0.10;;;17.50;99.90;;;;;;4934987;29;20451;-72
2023/05/12 11:31:38;;;;;;;0.60;0.40;;;17.50;99.90;;;;;;4934878;29;20494;-71
2023/05/12 11:34:08;;;;;;;0.60;0.17;;;17.60;99.90;;;;;;4935021;29;20498;-71
2023/05/12 11:36:41;;;;;;;0.60;0.10;;;17.50;99.90;;;;;;4935607;29;20542;-71
2023/05/12 11:39:13;;;;;;;0.60;0.10;;;17.50;99.90;;;;;;4936163;29;20465;-70
2023/05/12 11:41:43;;;;;;;0.60;0.10;;;17.50;99.90;;;;;;4945425;29;20478;-71
2023/05/12 11:44:15;;;;;;;0.80;0.40;;;17.40;99.90;;;;;;4953586;29;20442;-73
2023/05/12 11:46:57;;;;;;;0.60;0.30;;;17.30;99.90;;;;;;4953580;29;20457;-72
2023/05/12 11:49:25;;;;;;;0.60;0.40;;;17.20;99.90;;;;;;4951743;29;20446;-73
2023/05/12 11:51:54;;;;;;;0.60;0.37;;;17.20;99.90;;;;;;4946257;29;20485;-72
2023/05/12 11:54:23;;;;;;;0.60;0.10;;;17.10;99.90;;;;;;4934357;29;20491;-71
2023/05/12 11:56:54;;;;;;;2.40;2.30;;;17.10;99.90;;;;;;4942430;29;20444;-72
2023/05/12 11:59:30;;;;;;;0.60;0.20;;;16.90;99.90;;;;;;4952757;29;20455;-71
2023/05/12 12:01:58;;;;;;;0.60;0.10;;;16.80;99.90;;;;;;4946287;29;20482;-71
2023/05/12 12:04:34;;;;;;;0.60;0.10;;;16.80;99.90;;;;;;4953475;29;20541;-69
2023/05/12 12:07:02;;;;;;;0.60;0.10;;;16.80;99.90;;;;;;4944527;29;20860;-70
2023/05/12 12:09:31;;;;;;;0.60;0.20;;;20.30;99.90;;;;;;4952722;29;20450;-68
2023/05/12 12:12:01;;;;;;;0.60;0.10;;;;;;;;;;4941894;29;20468;-70
2023/05/12 12:14:31;;;;;;;0.60;0.10;;;16.70;99.90;;;;;;4938492;29;20490;-70
2023/05/12 12:16:59;;;;;;;0.60;0.10;;;16.70;99.90;;;;;;4948355;29;20458;-69
2023/05/12 12:19:27;;;;;;;0.60;0.10;;;16.80;99.90;;;;;;4958889;29;20453;-70
2023/05/12 12:21:56;;;;;;;0.60;0.10;;;;;;;;;;4942680;29;20477;-71
2023/05/12 12:24:25;;;;;;;0.60;0.10;;;17.10;99.90;;;;;;4939260;29;20546;-71
2023/05/12 12:26:53;;;;;;;1.27;1.17;;;17.20;99.90;;;;;;4939382;29;20473;-70
2023/05/12 12:29:24;;;;;;;2.20;2.10;;;17.20;99.90;;;;;;4940614;29;20455;-72
2023/05/12 12:31:52;;;;;;;0.60;0.10;;;17.40;99.90;;;;;;4947237;29;20548;-73
2023/05/12 12:34:20;;;;;;;0.83;0.83;;;17.50;99.90;;;;;;4937571;29;20487;-71
2023/05/12 12:36:48;;;;;;;0.60;0.10;;;17.60;99.90;;;;;;4938029;29;20493;-72
2023/05/12 12:39:16;;;;;;;0.60;0.20;;;17.70;99.90;;;;;;4949509;29;20473;-69
2023/05/12 12:41:46;;;;;;;0.60;0.20;;;17.80;99.90;;;;;;4943800;29;20486;-70
2023/05/12 12:44:15;;;;;;;0.60;0.20;;;17.90;99.90;;;;;;4938374;29;20444;-69
2023/05/12 12:46:44;;;;;;;0.93;0.33;;;17.90;99.90;;;;;;4946486;29;20458;-71
2023/05/12 12:49:12;;;;;;;0.60;0.20;;;17.90;99.90;;;;;;4956621;29;20536;-70
2023/05/12 12:51:40;;;;;;;0.60;0.10;;;18.00;99.90;;;;;;4944302;29;20471;-70
2023/05/12 12:54:14;;;;;;;0.60;0.20;;;18.00;99.90;;;;;;4937079;29;20909;-72
2023/05/12 12:56:42;;;;;;;0.60;0.10;;;18.00;99.90;;;;;;4937670;29;20459;-72
2023/05/12 12:59:11;;;;;;;0.60;0.17;;;18.10;99.90;;;;;;4937936;29;20477;-72
2023/05/12 13:01:39;;;;;;;0.60;0.10;;;19.90;99.90;;;;;;4936784;29;20993;-69
2023/05/12 13:04:08;;;;;;;0.60;0.10;;;18.20;99.90;;;;;;4937221;29;20449;-69
2023/05/12 13:06:36;;;;;;;0.80;0.40;;;18.20;99.90;;;;;;4937709;29;20558;-71
2023/05/12 13:09:04;;;;;;;0.60;0.17;;;18.10;99.90;;;;;;4938943;29;20504;-70
2023/05/12 13:11:32;;;;;;;0.60;0.10;;;18.10;99.90;;;;;;4950924;29;20470;-70
2023/05/12 13:14:01;;;;;;;0.70;0.40;;;18.10;99.90;;;;;;4959669;29;20485;-68
2023/05/12 13:16:29;;;;;;;0.60;0.10;;;18.10;99.90;;;;;;4957960;29;20518;-69
2023/05/12 13:18:57;;;;;;;0.60;0.10;;;18.10;99.90;;;;;;4957770;29;20537;-68
2023/05/12 13:21:27;;;;;;;0.60;0.10;;;18.10;99.90;;;;;;4947204;29;20994;-69
2023/05/12 13:23:55;;;;;;;0.60;0.10;;;18.10;99.90;;;;;;4935664;29;20464;-71
2023/05/12 13:26:23;;;;;;;0.60;0.20;;;18.20;99.90;;;;;;4935500;29;21228;-71
2023/05/12 13:28:51;;;;;;;0.60;0.10;;;18.20;99.90;;;;;;4937280;29;20531;-72
2023/05/12 13:31:19;;;;;;;0.60;0.10;;;;;;;;;;4937782;29;20492;-70
2023/05/12 13:33:47;;;;;;;0.60;0.10;;;18.40;99.90;;;;;;4939552;29;20467;-72
2023/05/12 13:36:15;;;;;;;0.60;0.10;;;18.50;99.90;;;;;;4940636;29;20546;-71
2023/05/12 13:38:44;;;;;;;0.60;0.20;;;18.50;99.90;;;;;;4940016;29;20530;-69
2023/05/12 13:41:15;;;;;;;0.60;0.20;;;18.60;99.90;;;;;;4929486;29;20485;-71
2023/05/12 13:43:43;;;;;;;0.60;0.10;;;18.60;99.90;;;;;;4937126;29;20462;-72
2023/05/12 13:46:11;;;;;;;0.60;0.20;;;18.60;99.90;;;;;;4937998;29;20451;-70
2023/05/12 13:48:39;;;;;;;0.60;0.10;;;18.70;99.90;;;;;;4937892;29;20477;-73
2023/05/12 13:51:07;;;;;;;0.60;0.10;;;18.70;99.90;;;;;;4940101;29;20481;-74
2023/05/12 13:53:37;;;;;;;0.60;0.10;;;18.80;99.90;;;;;;4940198;29;20483;-77
2023/05/12 13:56:07;;;;;;;0.60;0.10;;;18.70;99.90;;;;;;4939448;29;20604;-76
2023/05/12 13:58:35;;;;;;;0.60;0.10;;;18.70;99.90;;;;;;4937352;29;20475;-76
2023/05/12 14:01:03;;;;;;;0.60;0.10;;;18.70;99.90;;;;;;4938785;29;20509;-76
2023/05/12 14:03:36;;;;;;;0.70;0.40;;;18.60;99.90;;;;;;4941140;29;20444;-78
2023/05/12 14:06:04;;;;;;;0.60;0.20;;;18.50;99.90;;;;;;4940176;29;20952;-75
2023/05/12 14:08:32;;;;;;;0.60;0.10;;;18.40;99.90;;;;;;4939854;29;20451;-76
2023/05/12 14:11:00;;;;;;;0.67;0.27;;;18.40;99.90;;;;;;4945535;29;21024;-75
2023/05/12 14:13:30;;;;;;;0.60;0.10;;;18.40;99.90;;;;;;4938542;29;20469;-77
2023/05/12 14:15:58;;;;;;;0.60;0.30;;;18.40;99.90;;;;;;4939341;29;20487;-77
2023/05/12 14:18:26;;;;;;;0.60;0.10;;;18.40;99.90;;;;;;4938841;29;20451;-76
2023/05/12 14:20:53;;;;;;;0.60;0.10;;;18.60;99.90;;;;;;4940089;29;20847;-77
2023/05/12 14:23:21;;;;;;;0.60;0.10;;;18.60;99.90;;;;;;4938421;29;20477;-76
2023/05/12 14:25:49;;;;;;;0.60;0.10;;;18.80;99.90;;;;;;4939550;29;20471;-77
2023/05/12 14:28:18;;;;;;;0.60;0.10;;;;;;;;;;4944365;29;20836;-76
2023/05/12 14:30:47;;;;;;;1.10;0.30;;;18.90;99.90;;;;;;4937774;29;20452;-79
2023/05/12 14:33:16;;;;;;;2.93;0.73;;;18.80;99.90;;;;;;4936967;29;20469;-76
2023/05/12 14:35:44;;;;;;;0.60;0.20;;;18.80;99.90;;;;;;4937797;29;20511;-75
2023/05/12 14:38:30;;;;;;;1.80;1.70;;;18.90;99.90;;;;;;4938034;29;20514;-77
2023/05/12 14:40:58;;;;;;;0.60;0.17;;;19.00;99.90;;;;;;4937461;29;20490;-76
2023/05/12 14:43:25;;;;;;;0.60;0.10;;;19.10;99.90;;;;;;4936391;29;20462;-78
2023/05/12 14:45:55;;;;;;;0.60;0.10;;;19.20;99.90;;;;;;4937295;29;20458;-79
2023/05/12 14:48:24;;;;;;;0.60;0.20;;;19.20;99.90;;;;;;4936995;29;20452;-77
2023/05/12 14:50:53;;;;;;;0.60;0.10;;;19.20;99.90;;;;;;4936308;29;20533;-76
2023/05/12 14:53:21;;;;;;;0.60;0.10;;;19.20;99.90;;;;;;4936086;29;20539;-77
2023/05/12 14:55:49;;;;;;;0.60;0.10;;;19.30;99.90;;;;;;4936605;29;20479;-78
2023/05/12 14:58:20;;;;;;;0.60;0.10;;;;;;;;;;4967964;22;20492;-73
2023/05/12 15:00:49;;;;;;;0.60;0.10;;;19.50;99.90;;;;;;4974110;28;20462;-74
2023/05/12 15:03:21;;;;;;;0.80;0.60;;;19.40;99.90;;;;;;4974566;28;20481;-76
2023/05/12 15:05:52;;;;;;;0.60;0.20;;;19.40;99.90;;;;;;4975156;28;20885;-73
2023/05/12 15:08:34;;;;;;;0.60;0.10;;;;;;;;;;4955306;28;20564;-74
2023/05/12 15:11:02;;;;;;;0.60;0.20;;;;;;;;;;4981320;28;20451;-75
2023/05/12 15:13:33;;;;;;;0.60;0.10;;;;;;;;;;4993425;28;20442;-74
2023/05/12 15:16:03;;;;;;;0.60;0.20;;;19.80;99.90;;;;;;4974472;28;20883;-74
2023/05/12 15:18:33;;;;;;;0.60;0.20;;;19.90;99.90;;;;;;4975422;28;20485;-74
2023/05/12 15:21:01;;;;;;;0.60;0.10;;;;;;;;;;4974054;28;20446;-75
2023/05/12 15:23:32;;;;;;;0.60;0.20;;;19.90;99.90;;;;;;4974057;28;20446;-75
2023/05/12 15:26:04;;;;;;;0.60;0.10;;;19.80;99.90;;;;;;4973517;28;20457;-73
2023/05/12 15:28:52;;;;;;;0.60;0.10;;;19.80;99.90;;;;;;4973023;28;20529;-74
2023/05/12 15:31:20;;;;;;;0.93;0.50;;;19.80;99.90;;;;;;4973339;28;20488;-76
2023/05/12 15:33:50;;;;;;;0.60;0.10;;;19.70;99.90;;;;;;4973798;28;20517;-76
2023/05/12 15:36:18;;;;;;;0.60;0.10;;;19.60;99.90;;;;;;4973390;28;20481;-74
2023/05/12 15:38:46;;;;;;;0.60;0.13;;;19.50;99.90;;;;;;4973142;28;20880;-73
2023/05/12 15:41:14;;;;;;;0.60;0.10;;;19.50;99.90;;;;;;4973628;28;20450;-74
2023/05/12 15:43:42;;;;;;;0.60;0.10;;;;;;;;;;4973195;28;20528;-72
2023/05/12 15:46:10;;;;;;;0.60;0.20;;;;;;;;;;4973502;28;20441;-72
2023/05/12 15:48:38;;;;;;;0.60;0.30;;;19.30;99.90;;;;;;4972866;28;20474;-73
2023/05/12 15:51:08;;;;;;;0.60;0.10;;;;;;;;;;4973414;28;20453;-72
2023/05/12 15:53:36;;;;;;;0.70;0.20;;;19.20;99.90;;;;;;4972912;28;20449;-74
2023/05/12 15:56:05;;;;;;;0.60;0.10;;;19.20;99.90;;;;;;4973284;28;20484;-72
2023/05/12 15:58:33;;;;;;;0.60;0.10;;;19.10;99.90;;;;;;4972609;28;20599;-73
2023/05/12 16:01:02;;;;;;;0.60;0.10;;;19.10;99.90;;;;;;4972397;28;20536;-72
2023/05/12 16:03:30;;;;;;;0.60;0.17;;;19.10;99.90;;;;;;4972797;28;20451;-72
2023/05/12 16:05:58;;;;;;;0.60;0.20;;;;;;;;;;4972883;28;20849;-73
2023/05/12 16:08:28;;;;;;;0.60;0.20;;;19.10;99.90;;;;;;4972726;28;20528;-75
2023/05/12 16:10:56;;;;;;;0.60;0.10;;;;;;;;;;4981312;28;20456;-75
2023/05/12 16:13:24;;;;;;;0.67;0.30;;;19.20;99.90;;;;;;4992823;28;20452;-75
2023/05/12 16:15:52;;;;;;;0.60;0.10;;;19.10;99.90;;;;;;4993018;28;20490;-73
2023/05/12 16:18:19;;;;;;;0.60;0.10;;;19.10;99.90;;;;;;4985173;28;20524;-76
2023/05/12 16:20:48;;;;;;;0.60;0.10;;;19.10;99.90;;;;;;4973634;28;20916;-74
2023/05/12 16:23:16;;;;;;;0.60;0.10;;;19.10;99.90;;;;;;4971449;28;20552;-72
2023/05/12 16:25:46;;;;;;;0.60;0.10;;;19.10;99.90;;;;;;4973607;28;20860;-74
2023/05/12 16:28:14;;;;;;;0.60;0.20;;;19.10;99.90;;;;;;4973640;28;20477;-73
2023/05/12 16:30:41;;;;;;;0.60;0.10;;;19.10;99.90;;;;;;4975103;28;20803;-75
2023/05/12 16:33:10;;;;;;;0.60;0.10;;;19.10;99.90;;;;;;4973124;28;20472;-72
2023/05/12 16:35:38;;;;;;;0.60;0.10;;;19.10;99.90;;;;;;4978349;28;20666;-71
2023/05/12 16:41:22;;;;;;;0.60;0.10;;;19.00;99.90;;;;;;4997746;28;20440;-73
2023/05/12 16:43:52;;;;;;;0.60;0.10;;;19.00;99.90;;;;;;4993561;28;20445;-73
2023/05/12 16:46:20;;;;;;;0.60;0.10;;;19.10;99.90;;;;;;4973480;28;20457;-74
2023/05/12 16:48:48;;;;;;;0.60;0.10;;;19.00;99.90;;;;;;4974833;28;20476;-76
2023/05/12 16:51:16;;;;;;;0.60;0.10;;;;;;;;;;4980599;28;20458;-72
2023/05/12 16:53:44;;;;;;;0.60;0.10;;;18.90;99.90;;;;;;4983005;28;20441;-72
2023/05/12 16:56:12;;;;;;;0.60;0.10;;;;;;;;;;4990177;28;20507;-73
2023/05/12 16:58:43;;;;;;;0.60;0.10;;;18.90;99.90;;;;;;4985623;28;20473;-73
2023/05/12 17:01:11;;;;;;;0.60;0.10;;;18.80;99.90;;;;;;4987285;28;20437;-73
2023/05/12 17:03:39;;;;;;;0.60;0.10;;;18.80;99.90;;;;;;4986411;28;20478;-72
2023/05/12 17:06:07;;;;;;;0.60;0.10;;;18.80;99.90;;;;;;4988928;28;20815;-71